createdAt,value
2023-05-02T00:00:02.633Z,4.90
2023-05-02T00:00:32.746Z,5.00
2023-05-02T00:01:03.978Z,6.00
2023-05-02T00:01:34.500Z,4.80
2023-05-02T00:02:05.727Z,4.60
2023-05-02T00:02:36.379Z,4.20
2023-05-02T00:03:07.474Z,4.20
2023-05-02T00:03:37.900Z,4.10
2023-05-02T00:04:08.921Z,4.40
2023-05-02T00:04:39.514Z,5.50
2023-05-02T00:05:09.952Z,4.00
2023-05-02T00:05:40.846Z,4.10
2023-05-02T00:06:11.759Z,3.90
2023-05-02T00:06:42.726Z,4.90
2023-05-02T00:07:13.544Z,5.50
2023-05-02T00:07:44.536Z,4.20
2023-05-02T00:08:15.510Z,5.50
2023-05-02T00:08:46.437Z,4.10
2023-05-02T00:09:17.461Z,4.90
2023-05-02T00:09:47.839Z,3.30
2023-05-02T00:10:18.716Z,5.00
2023-05-02T00:10:49.610Z,5.60
2023-05-02T00:11:23.473Z,4.20
2023-05-02T00:11:51.562Z,4.50
2023-05-02T00:12:21.997Z,4.40
2023-05-02T00:12:52.858Z,3.60
2023-05-02T00:13:23.741Z,4.30
2023-05-02T00:13:54.644Z,4.10
2023-05-02T00:14:25.599Z,4.20
2023-05-02T00:14:56.463Z,4.50
2023-05-02T00:15:27.347Z,4.40
2023-05-02T00:15:58.267Z,3.70
2023-05-02T00:16:29.179Z,4.50
2023-05-02T00:17:00.127Z,3.60
2023-05-02T00:17:31.073Z,4.50
2023-05-02T00:18:02.256Z,4.50
2023-05-02T00:18:32.814Z,5.40
2023-05-02T00:19:03.768Z,5.00
2023-05-02T00:19:34.770Z,5.00
2023-05-02T00:20:05.349Z,3.70
2023-05-02T00:20:36.248Z,5.20
2023-05-02T00:21:07.112Z,3.20
2023-05-02T00:21:37.988Z,4.30
2023-05-02T00:22:08.853Z,3.80
2023-05-02T00:22:39.727Z,3.50
2023-05-02T00:23:10.599Z,5.10
2023-05-02T00:23:41.584Z,3.90
2023-05-02T00:24:12.556Z,3.60
2023-05-02T00:24:43.044Z,4.10
2023-05-02T00:25:14.053Z,6.90
2023-05-02T00:25:44.993Z,3.70
2023-05-02T00:26:15.937Z,4.50
2023-05-02T00:26:46.809Z,4.20
2023-05-02T00:27:17.729Z,3.50
2023-05-02T00:27:48.602Z,4.80
2023-05-02T00:28:19.472Z,4.80
2023-05-02T00:28:50.351Z,5.40
2023-05-02T00:29:21.217Z,4.30
2023-05-02T00:29:52.152Z,4.50
2023-05-02T00:30:23.274Z,5.60
2023-05-02T00:30:53.829Z,3.60
2023-05-02T00:31:24.528Z,4.00
2023-05-02T00:31:55.042Z,4.10
2023-05-02T00:32:26.202Z,4.50
2023-05-02T00:32:56.882Z,4.50
2023-05-02T00:33:27.335Z,3.10
2023-05-02T00:33:58.200Z,4.80
2023-05-02T00:34:29.070Z,8.30
2023-05-02T00:34:59.942Z,2.80
2023-05-02T00:35:30.810Z,2.80
2023-05-02T00:36:01.684Z,4.20
2023-05-02T00:36:32.690Z,3.70
2023-05-02T00:37:03.625Z,4.40
2023-05-02T00:37:34.541Z,4.50
2023-05-02T00:38:05.467Z,4.80
2023-05-02T00:38:36.451Z,3.10
2023-05-02T00:39:07.316Z,4.20
2023-05-02T00:39:38.191Z,3.40
2023-05-02T00:40:09.097Z,5.70
2023-05-02T00:40:40.004Z,3.90
2023-05-02T00:41:10.882Z,3.50
2023-05-02T00:41:41.782Z,3.80
2023-05-02T00:42:12.733Z,3.90
2023-05-02T00:42:43.711Z,4.20
2023-05-02T00:43:14.659Z,3.90
2023-05-02T00:43:45.668Z,5.00
2023-05-02T00:44:16.181Z,4.40
2023-05-02T00:44:47.153Z,3.70
2023-05-02T00:45:18.041Z,4.00
2023-05-02T00:45:48.908Z,5.90
2023-05-02T00:46:19.825Z,3.50
2023-05-02T00:46:50.736Z,4.20
2023-05-02T00:47:21.694Z,4.40
2023-05-02T00:47:52.823Z,3.10
2023-05-02T00:48:23.395Z,3.60
2023-05-02T00:48:53.910Z,3.50
2023-05-02T00:49:24.369Z,5.30
2023-05-02T00:49:55.368Z,3.80
2023-05-02T00:50:26.293Z,3.90
2023-05-02T00:50:57.254Z,4.10
2023-05-02T00:51:28.149Z,3.80
2023-05-02T00:51:59.023Z,4.20
2023-05-02T00:52:29.921Z,3.40
2023-05-02T00:53:00.802Z,3.90
2023-05-02T00:53:31.680Z,4.10
2023-05-02T00:54:02.616Z,3.60
2023-05-02T00:54:33.549Z,3.90
2023-05-02T00:55:04.545Z,3.80
2023-05-02T00:55:35.468Z,4.30
2023-05-02T00:56:06.383Z,3.60
2023-05-02T00:56:37.353Z,3.40
2023-05-02T00:57:08.231Z,4.10
2023-05-02T00:57:39.089Z,3.40
2023-05-02T00:58:09.999Z,4.10
2023-05-02T00:58:40.875Z,3.10
2023-05-02T00:59:11.755Z,5.70
2023-05-02T00:59:42.666Z,3.00
2023-05-02T01:00:13.611Z,3.40
2023-05-02T01:00:44.687Z,3.50
2023-05-02T01:01:15.157Z,2.80
2023-05-02T01:01:45.737Z,6.30
2023-05-02T01:02:16.238Z,3.10
2023-05-02T01:02:46.818Z,3.30
2023-05-02T01:03:17.453Z,3.60
2023-05-02T01:03:48.349Z,2.90
2023-05-02T01:04:18.814Z,4.10
2023-05-02T01:04:49.266Z,3.20
2023-05-02T01:05:20.187Z,3.40
2023-05-02T01:05:50.665Z,4.00
2023-05-02T01:06:21.610Z,3.30
2023-05-02T01:06:52.572Z,2.90
2023-05-02T01:07:23.518Z,3.70
2023-05-02T01:07:54.700Z,5.60
2023-05-02T01:08:25.188Z,3.40
2023-05-02T01:08:56.324Z,4.00
2023-05-02T01:09:26.822Z,2.90
2023-05-02T01:09:57.861Z,4.00
2023-05-02T01:10:28.128Z,4.60
2023-05-02T01:10:58.751Z,3.80
2023-05-02T01:11:29.191Z,3.80
2023-05-02T01:12:00.113Z,2.60
2023-05-02T01:12:31.017Z,3.00
2023-05-02T01:13:01.879Z,4.20
2023-05-02T01:13:32.868Z,4.40
2023-05-02T01:14:03.732Z,4.10
2023-05-02T01:14:34.697Z,3.80
2023-05-02T01:15:05.651Z,4.50
2023-05-02T01:15:36.619Z,3.30
2023-05-02T01:16:07.588Z,5.70
2023-05-02T01:16:38.104Z,3.90
2023-05-02T01:17:08.586Z,3.30
2023-05-02T01:17:39.537Z,4.80
2023-05-02T01:18:10.538Z,3.20
2023-05-02T01:18:40.950Z,3.80
2023-05-02T01:19:11.847Z,3.90
2023-05-02T01:19:42.710Z,3.20
2023-05-02T01:20:13.578Z,3.50
2023-05-02T01:20:44.641Z,3.40
2023-05-02T01:21:15.148Z,4.20
2023-05-02T01:21:46.078Z,3.70
2023-05-02T01:22:17.028Z,5.10
2023-05-02T01:22:47.985Z,4.90
2023-05-02T01:23:18.944Z,3.30
2023-05-02T01:23:49.823Z,3.30
2023-05-02T01:24:20.696Z,3.70
2023-05-02T01:24:51.597Z,4.50
2023-05-02T01:25:22.467Z,4.40
2023-05-02T01:25:53.333Z,4.00
2023-05-02T01:26:24.209Z,3.60
2023-05-02T01:26:55.328Z,3.30
2023-05-02T01:27:25.838Z,3.60
2023-05-02T01:27:56.463Z,3.80
2023-05-02T01:28:26.950Z,3.60
2023-05-02T01:28:58.217Z,4.20
2023-05-02T01:29:28.752Z,4.40
2023-05-02T01:29:59.723Z,5.00
2023-05-02T01:30:29.832Z,3.40
2023-05-02T01:31:00.703Z,4.40
2023-05-02T01:31:31.609Z,4.10
2023-05-02T01:32:02.574Z,3.60
2023-05-02T01:32:33.658Z,4.40
2023-05-02T01:33:04.267Z,3.50
2023-05-02T01:33:34.676Z,3.90
2023-05-02T01:34:05.600Z,5.20
2023-05-02T01:34:36.533Z,3.80
2023-05-02T01:35:07.461Z,4.00
2023-05-02T01:35:38.386Z,4.30
2023-05-02T01:36:09.304Z,3.60
2023-05-02T01:36:40.169Z,4.20
2023-05-02T01:37:11.051Z,3.60
2023-05-02T01:37:41.965Z,3.60
2023-05-02T01:38:12.854Z,3.80
2023-05-02T01:38:43.731Z,3.40
2023-05-02T01:39:14.648Z,4.10
2023-05-02T01:39:45.579Z,4.50
2023-05-02T01:40:16.565Z,3.80
2023-05-02T01:40:47.506Z,4.20
2023-05-02T01:41:18.503Z,4.00
2023-05-02T01:41:49.011Z,3.70
2023-05-02T01:42:20.008Z,3.60
2023-05-02T01:42:50.883Z,3.90
2023-05-02T01:43:21.760Z,3.80
2023-05-02T01:43:52.642Z,3.90
2023-05-02T01:44:23.568Z,3.20
2023-05-02T01:44:54.448Z,3.70
2023-05-02T01:45:25.451Z,5.40
2023-05-02T01:45:55.877Z,3.30
2023-05-02T01:46:26.649Z,4.00
2023-05-02T01:46:57.245Z,4.00
2023-05-02T01:47:27.792Z,3.90
2023-05-02T01:47:58.277Z,4.60
2023-05-02T01:48:29.254Z,3.60
2023-05-02T01:49:00.250Z,3.40
2023-05-02T01:49:31.120Z,4.10
2023-05-02T01:50:02.196Z,4.00
2023-05-02T01:50:32.832Z,3.50
2023-05-02T01:51:03.739Z,4.00
2023-05-02T01:51:34.623Z,3.60
2023-05-02T01:52:05.700Z,3.90
2023-05-02T01:52:36.212Z,3.60
2023-05-02T01:53:06.645Z,5.10
2023-05-02T01:53:37.603Z,3.40
2023-05-02T01:54:08.549Z,3.40
2023-05-02T01:54:39.081Z,3.80
2023-05-02T01:55:10.052Z,5.00
2023-05-02T01:55:40.919Z,10.70
2023-05-02T01:56:11.802Z,4.00
2023-05-02T01:56:42.675Z,3.90
2023-05-02T01:57:13.547Z,3.60
2023-05-02T01:57:44.462Z,3.50
2023-05-02T01:58:15.343Z,3.60
2023-05-02T01:58:46.384Z,3.60
2023-05-02T01:59:17.010Z,4.80
2023-05-02T01:59:47.546Z,3.70
2023-05-02T02:00:18.218Z,3.80
2023-05-02T02:00:48.699Z,3.90
2023-05-02T02:01:19.535Z,3.70
2023-05-02T02:01:49.952Z,4.10
2023-05-02T02:02:20.584Z,4.30
2023-05-02T02:02:51.099Z,3.50
2023-05-02T02:03:21.506Z,3.50
2023-05-02T02:03:52.473Z,3.60
2023-05-02T02:04:23.402Z,3.50
2023-05-02T02:04:53.885Z,3.60
2023-05-02T02:05:24.836Z,4.00
2023-05-02T02:05:55.773Z,4.00
2023-05-02T02:06:27.005Z,3.50
2023-05-02T02:06:57.535Z,3.60
2023-05-02T02:07:28.259Z,3.80
2023-05-02T02:07:58.873Z,5.50
2023-05-02T02:08:29.598Z,3.10
2023-05-02T02:09:00.098Z,3.30
2023-05-02T02:09:31.219Z,5.60
2023-05-02T02:10:01.899Z,3.10
2023-05-02T02:10:32.513Z,4.00
2023-05-02T02:11:03.441Z,3.40
2023-05-02T02:11:34.320Z,3.60
2023-05-02T02:12:05.203Z,3.10
2023-05-02T02:12:36.087Z,4.70
2023-05-02T02:13:07.019Z,3.90
2023-05-02T02:13:37.971Z,3.60
2023-05-02T02:14:08.897Z,4.20
2023-05-02T02:14:39.895Z,3.40
2023-05-02T02:15:10.871Z,3.50
2023-05-02T02:15:41.789Z,5.50
2023-05-02T02:16:12.720Z,3.30
2023-05-02T02:16:43.690Z,2.90
2023-05-02T02:17:14.632Z,3.50
2023-05-02T02:17:45.590Z,3.70
2023-05-02T02:18:16.521Z,3.20
2023-05-02T02:18:47.537Z,6.60
2023-05-02T02:19:17.968Z,5.00
2023-05-02T02:19:48.978Z,3.40
2023-05-02T02:20:19.901Z,4.20
2023-05-02T02:20:50.872Z,4.10
2023-05-02T02:21:21.875Z,2.80
2023-05-02T02:21:52.747Z,3.80
2023-05-02T02:22:23.622Z,4.50
2023-05-02T02:22:54.513Z,4.50
2023-05-02T02:23:25.388Z,3.30
2023-05-02T02:23:56.254Z,3.50
2023-05-02T02:24:27.261Z,3.90
2023-05-02T02:24:57.679Z,4.00
2023-05-02T02:25:28.703Z,3.70
2023-05-02T02:25:59.248Z,4.10
2023-05-02T02:26:29.675Z,4.20
2023-05-02T02:27:00.623Z,3.00
2023-05-02T02:27:31.575Z,3.80
2023-05-02T02:28:02.437Z,3.40
2023-05-02T02:28:33.306Z,4.10
2023-05-02T02:29:04.203Z,4.30
2023-05-02T02:29:35.063Z,4.00
2023-05-02T02:30:05.943Z,4.00
2023-05-02T02:30:36.907Z,5.30
2023-05-02T02:31:07.771Z,4.20
2023-05-02T02:31:38.265Z,3.60
2023-05-02T02:32:08.773Z,4.70
2023-05-02T02:32:39.962Z,3.20
2023-05-02T02:33:10.594Z,4.60
2023-05-02T02:33:41.248Z,4.30
2023-05-02T02:34:11.736Z,4.40
2023-05-02T02:34:42.842Z,3.50
2023-05-02T02:35:13.307Z,3.80
2023-05-02T02:35:44.196Z,3.50
2023-05-02T02:36:15.087Z,4.70
2023-05-02T02:36:45.961Z,5.30
2023-05-02T02:37:16.834Z,3.80
2023-05-02T02:37:47.792Z,5.00
2023-05-02T02:38:18.350Z,4.00
2023-05-02T02:38:49.482Z,4.20
2023-05-02T02:39:20.000Z,3.80
2023-05-02T02:39:50.642Z,5.10
2023-05-02T02:40:21.156Z,3.70
2023-05-02T02:40:52.294Z,3.70
2023-05-02T02:41:22.802Z,4.10
2023-05-02T02:41:53.665Z,4.10
2023-05-02T02:42:24.532Z,5.20
2023-05-02T02:42:55.427Z,4.20
2023-05-02T02:43:26.305Z,4.40
2023-05-02T02:43:57.170Z,4.40
2023-05-02T02:44:28.325Z,3.60
2023-05-02T02:44:59.130Z,4.50
2023-05-02T02:45:29.621Z,3.80
2023-05-02T02:46:00.853Z,4.40
2023-05-02T02:46:31.382Z,6.10
2023-05-02T02:47:02.242Z,3.90
2023-05-02T02:47:32.837Z,4.50
2023-05-02T02:48:03.383Z,3.90
2023-05-02T02:48:33.776Z,4.00
2023-05-02T02:49:04.645Z,3.90
2023-05-02T02:49:35.546Z,4.00
2023-05-02T02:50:06.425Z,4.70
2023-05-02T02:50:37.345Z,4.40
2023-05-02T02:51:08.210Z,3.60
2023-05-02T02:51:39.182Z,5.10
2023-05-02T02:52:10.100Z,4.80
2023-05-02T02:52:41.013Z,4.10
2023-05-02T02:53:11.946Z,6.70
2023-05-02T02:53:42.958Z,4.50
2023-05-02T02:54:25.766Z,4.80
2023-05-02T02:54:45.660Z,4.70
2023-05-02T02:55:15.572Z,4.20
2023-05-02T02:55:46.502Z,4.10
2023-05-02T02:56:17.372Z,5.00
2023-05-02T02:56:48.295Z,6.20
2023-05-02T02:57:19.228Z,4.30
2023-05-02T02:57:50.210Z,3.80
2023-05-02T02:58:21.154Z,4.60
2023-05-02T02:58:52.159Z,5.80
2023-05-02T02:59:22.663Z,3.80
2023-05-02T02:59:53.612Z,4.60
2023-05-02T03:00:24.490Z,4.40
2023-05-02T03:00:55.375Z,4.70
2023-05-02T03:01:26.283Z,3.70
2023-05-02T03:01:57.258Z,3.10
2023-05-02T03:02:28.164Z,4.00
2023-05-02T03:02:59.515Z,4.70
2023-05-02T03:03:30.039Z,4.40
2023-05-02T03:04:00.755Z,4.30
2023-05-02T03:04:31.338Z,4.40
2023-05-02T03:05:02.044Z,3.70
2023-05-02T03:05:32.529Z,4.40
2023-05-02T03:06:03.766Z,4.40
2023-05-02T03:06:34.343Z,6.10
2023-05-02T03:07:05.312Z,4.10
2023-05-02T03:07:36.195Z,4.20
2023-05-02T03:08:07.132Z,5.00
2023-05-02T03:08:38.025Z,4.10
2023-05-02T03:09:08.879Z,4.50
2023-05-02T03:09:39.864Z,4.60
2023-05-02T03:10:10.812Z,4.10
2023-05-02T03:10:41.812Z,4.80
2023-05-02T03:11:12.746Z,4.30
2023-05-02T03:11:43.680Z,4.50
2023-05-02T03:12:14.548Z,5.20
2023-05-02T03:12:45.441Z,4.70
2023-05-02T03:13:16.346Z,4.40
2023-05-02T03:13:47.208Z,4.60
2023-05-02T03:14:18.112Z,3.80
2023-05-02T03:14:48.985Z,4.70
2023-05-02T03:15:20.085Z,4.70
2023-05-02T03:15:50.553Z,5.10
2023-05-02T03:16:21.505Z,6.50
2023-05-02T03:16:51.974Z,4.90
2023-05-02T03:17:25.612Z,3.90
2023-05-02T03:17:53.793Z,6.40
2023-05-02T03:18:24.745Z,4.60
2023-05-02T03:18:55.637Z,6.40
2023-05-02T03:19:26.497Z,4.20
2023-05-02T03:19:57.583Z,4.60
2023-05-02T03:20:28.353Z,4.60
2023-05-02T03:20:59.214Z,4.30
2023-05-02T03:21:30.214Z,5.20
2023-05-02T03:22:00.661Z,4.80
2023-05-02T03:22:31.622Z,4.30
2023-05-02T03:23:02.619Z,4.80
2023-05-02T03:23:33.092Z,3.90
2023-05-02T03:24:04.028Z,4.80
2023-05-02T03:24:34.989Z,4.90
2023-05-02T03:25:05.873Z,5.20
2023-05-02T03:25:36.764Z,5.10
2023-05-02T03:26:07.630Z,6.40
2023-05-02T03:26:38.504Z,5.20
2023-05-02T03:27:09.386Z,5.20
2023-05-02T03:27:40.438Z,4.60
2023-05-02T03:28:10.948Z,5.00
2023-05-02T03:28:41.869Z,4.20
2023-05-02T03:29:12.887Z,4.20
2023-05-02T03:29:43.365Z,5.50
2023-05-02T03:30:14.294Z,4.80
2023-05-02T03:30:45.224Z,4.20
2023-05-02T03:31:16.162Z,5.00
2023-05-02T03:31:47.570Z,5.00
2023-05-02T03:32:18.235Z,5.50
2023-05-02T03:32:48.949Z,4.60
2023-05-02T03:33:19.958Z,4.10
2023-05-02T03:34:30.945Z,4.60
2023-05-02T03:35:01.389Z,5.00
2023-05-02T03:35:33.572Z,5.70
2023-05-02T03:36:03.646Z,4.90
2023-05-02T03:36:33.651Z,6.30
2023-05-02T03:37:05.449Z,4.60
2023-05-02T03:37:35.495Z,4.90
2023-05-02T03:38:06.007Z,5.70
2023-05-02T03:38:36.879Z,4.40
2023-05-02T03:39:07.770Z,6.00
2023-05-02T03:39:38.714Z,5.50
2023-05-02T03:40:09.991Z,5.80
2023-05-02T03:40:40.853Z,5.30
2023-05-02T03:41:12.141Z,4.50
2023-05-02T03:41:42.162Z,4.00
2023-05-02T03:42:12.619Z,5.40
2023-05-02T03:42:43.559Z,5.10
2023-05-02T03:43:14.550Z,4.50
2023-05-02T03:43:45.461Z,4.90
2023-05-02T03:44:15.975Z,5.30
2023-05-02T03:44:46.342Z,4.90
2023-05-02T03:45:17.234Z,4.00
2023-05-02T03:46:29.907Z,5.30
2023-05-02T03:47:02.225Z,4.90
2023-05-02T03:47:31.608Z,5.90
2023-05-02T03:48:01.537Z,6.00
2023-05-02T03:48:32.519Z,5.00
2023-05-02T03:49:03.408Z,4.70
2023-05-02T03:49:34.368Z,5.30
2023-05-02T03:50:05.309Z,5.70
2023-05-02T03:50:36.132Z,5.50
2023-05-02T03:51:07.485Z,5.40
2023-05-02T03:52:21.096Z,5.10
2023-05-02T03:52:49.436Z,5.10
2023-05-02T03:55:23.364Z,5.10
2023-05-02T03:55:54.925Z,5.10
2023-05-02T03:56:24.867Z,5.30
2023-05-02T03:56:56.444Z,5.40
2023-05-02T03:57:26.278Z,5.40
2023-05-02T03:57:57.116Z,5.60
2023-05-02T03:58:28.213Z,6.00
2023-05-02T03:58:58.556Z,6.90
2023-05-02T03:59:29.405Z,5.20
2023-05-02T04:00:00.776Z,5.60
2023-05-02T04:00:31.220Z,5.60
2023-05-02T04:01:01.858Z,4.90
2023-05-02T04:01:32.312Z,7.90
2023-05-02T04:02:03.478Z,4.70
2023-05-02T04:02:34.036Z,5.30
2023-05-02T04:03:04.824Z,6.50
2023-05-02T04:03:35.386Z,5.10
2023-05-02T04:04:06.119Z,5.90
2023-05-02T04:04:36.691Z,5.00
2023-05-02T04:05:07.137Z,6.20
2023-05-02T04:05:37.956Z,6.50
2023-05-02T04:06:08.792Z,5.40
2023-05-02T04:06:39.705Z,6.20
2023-05-02T04:07:10.576Z,7.20
2023-05-02T04:07:41.460Z,5.60
2023-05-02T04:08:12.584Z,6.40
2023-05-02T04:08:43.043Z,6.70
2023-05-02T04:09:14.123Z,5.10
2023-05-02T04:09:44.591Z,5.70
2023-05-02T04:10:15.679Z,5.60
2023-05-02T04:10:46.126Z,6.20
2023-05-02T04:11:16.521Z,6.10
2023-05-02T04:11:47.332Z,5.90
2023-05-02T04:12:18.150Z,5.00
2023-05-02T04:12:48.960Z,6.00
2023-05-02T04:13:19.780Z,5.60
2023-05-02T04:13:52.650Z,6.30
2023-05-02T04:14:21.377Z,4.90
2023-05-02T04:14:51.954Z,4.90
2023-05-02T04:15:23.013Z,5.10
2023-05-02T04:15:53.466Z,5.60
2023-05-02T04:16:24.593Z,5.50
2023-05-02T04:16:55.099Z,4.50
2023-05-02T04:17:25.939Z,6.70
2023-05-02T04:17:56.437Z,5.20
2023-05-02T04:18:26.928Z,4.90
2023-05-02T04:18:57.750Z,5.80
2023-05-02T04:19:28.576Z,5.70
2023-05-02T04:20:01.640Z,5.60
2023-05-02T04:20:30.143Z,6.20
2023-05-02T04:21:00.994Z,6.20
2023-05-02T04:21:31.798Z,6.30
2023-05-02T04:22:02.662Z,5.70
2023-05-02T04:22:33.556Z,6.50
2023-05-02T04:23:04.500Z,6.10
2023-05-02T04:23:35.386Z,6.80
2023-05-02T04:24:06.304Z,6.50
2023-05-02T04:24:37.141Z,6.50
2023-05-02T04:25:07.958Z,5.10
2023-05-02T04:25:38.791Z,5.30
2023-05-02T04:26:09.619Z,5.40
2023-05-02T04:26:40.442Z,5.40
2023-05-02T04:27:13.682Z,8.70
2023-05-02T04:27:41.899Z,6.40
2023-05-02T04:28:12.976Z,5.80
2023-05-02T04:28:43.421Z,4.90
2023-05-02T04:29:14.497Z,6.80
2023-05-02T04:29:44.912Z,5.90
2023-05-02T04:30:16.060Z,5.90
2023-05-02T04:30:46.541Z,5.00
2023-05-02T04:31:17.243Z,5.30
2023-05-02T04:31:47.797Z,7.90
2023-05-02T04:32:18.543Z,5.10
2023-05-02T04:33:31.267Z,6.80
2023-05-02T04:34:45.003Z,5.10
2023-05-02T04:35:28.067Z,6.50
2023-05-02T04:35:44.707Z,5.00
2023-05-02T04:36:14.518Z,5.40
2023-05-02T04:36:45.332Z,6.00
2023-05-02T04:37:16.289Z,7.40
2023-05-02T04:37:46.757Z,6.60
2023-05-02T04:38:17.693Z,6.70
2023-05-02T04:38:48.551Z,7.00
2023-05-02T04:39:19.400Z,7.40
2023-05-02T04:39:50.236Z,6.20
2023-05-02T04:40:21.141Z,7.20
2023-05-02T04:40:51.954Z,6.20
2023-05-02T04:41:22.800Z,6.60
2023-05-02T04:41:53.786Z,6.40
2023-05-02T04:42:24.703Z,6.40
2023-05-02T04:42:55.604Z,5.80
2023-05-02T04:43:26.561Z,5.90
2023-05-02T04:43:57.499Z,6.10
2023-05-02T04:44:28.314Z,5.60
2023-05-02T04:44:59.153Z,7.50
2023-05-02T04:45:30.026Z,6.10
2023-05-02T04:46:00.902Z,6.90
2023-05-02T04:46:31.843Z,5.30
2023-05-02T04:47:02.721Z,6.60
2023-05-02T04:47:33.613Z,4.90
2023-05-02T04:48:04.904Z,5.70
2023-05-02T04:48:35.474Z,6.40
2023-05-02T04:49:06.568Z,6.80
2023-05-02T04:49:37.013Z,6.50
2023-05-02T04:50:08.137Z,5.20
2023-05-02T04:50:38.470Z,6.70
2023-05-02T04:51:09.278Z,5.60
2023-05-02T04:51:40.097Z,5.90
2023-05-02T04:52:10.943Z,5.00
2023-05-02T04:52:41.780Z,6.20
2023-05-02T04:53:12.597Z,5.90
2023-05-02T04:53:43.599Z,6.00
2023-05-02T04:54:14.777Z,5.50
2023-05-02T04:54:45.228Z,6.90
2023-05-02T04:55:16.293Z,5.00
2023-05-02T04:55:46.748Z,5.60
2023-05-02T04:56:17.897Z,7.60
2023-05-02T04:56:48.343Z,5.90
2023-05-02T04:57:20.892Z,5.20
2023-05-02T04:57:49.967Z,7.00
2023-05-02T04:58:20.781Z,5.20
2023-05-02T04:58:51.693Z,5.40
2023-05-02T04:59:22.540Z,4.70
2023-05-02T04:59:53.382Z,6.70
2023-05-02T05:00:24.374Z,5.60
2023-05-02T05:00:55.304Z,5.30
2023-05-02T05:01:26.269Z,6.90
2023-05-02T05:01:57.207Z,6.10
2023-05-02T05:02:27.870Z,7.30
2023-05-02T05:03:00.175Z,9.60
2023-05-02T05:03:29.108Z,5.00
2023-05-02T05:04:00.110Z,5.20
2023-05-02T05:04:30.479Z,6.90
2023-05-02T05:05:01.348Z,5.70
2023-05-02T05:05:32.313Z,7.30
2023-05-02T05:06:03.181Z,9.00
2023-05-02T05:06:34.300Z,11.20
2023-05-02T05:07:06.742Z,12.90
2023-05-02T05:07:35.716Z,13.20
2023-05-02T05:08:06.594Z,10.50
2023-05-02T05:08:37.423Z,9.30
2023-05-02T05:09:08.319Z,7.90
2023-05-02T05:09:39.132Z,6.60
2023-05-02T05:10:09.948Z,8.50
2023-05-02T05:10:40.804Z,8.60
2023-05-02T05:11:11.646Z,8.50
2023-05-02T05:11:42.549Z,7.00
2023-05-02T05:12:13.378Z,9.10
2023-05-02T05:12:44.214Z,5.60
2023-05-02T05:13:15.287Z,6.20
2023-05-02T05:13:45.717Z,5.60
2023-05-02T05:14:16.875Z,5.60
2023-05-02T05:14:47.342Z,6.10
2023-05-02T05:15:18.430Z,7.30
2023-05-02T05:15:48.962Z,5.30
2023-05-02T05:16:19.821Z,5.90
2023-05-02T05:16:50.373Z,6.30
2023-05-02T05:17:20.746Z,6.50
2023-05-02T05:17:51.583Z,7.60
2023-05-02T05:18:22.484Z,7.70
2023-05-02T05:18:53.313Z,6.20
2023-05-02T05:19:24.157Z,7.10
2023-05-02T05:19:55.070Z,6.00
2023-05-02T05:20:26.031Z,6.60
2023-05-02T05:20:57.000Z,7.40
2023-05-02T05:21:27.448Z,5.50
2023-05-02T05:21:58.349Z,8.20
2023-05-02T05:22:29.349Z,5.90
2023-05-02T05:23:00.153Z,6.20
2023-05-02T05:23:30.961Z,6.10
2023-05-02T05:24:01.839Z,7.50
2023-05-02T05:24:32.692Z,7.80
2023-05-02T05:25:03.515Z,6.30
2023-05-02T05:25:34.318Z,7.70
2023-05-02T05:26:05.286Z,6.50
2023-05-02T05:26:36.169Z,9.70
2023-05-02T05:27:07.057Z,6.70
2023-05-02T05:27:37.921Z,5.60
2023-05-02T05:28:08.906Z,6.40
2023-05-02T05:28:39.796Z,6.10
2023-05-02T05:29:10.616Z,6.50
2023-05-02T05:29:41.443Z,5.50
2023-05-02T05:30:12.263Z,5.60
2023-05-02T05:30:43.080Z,6.60
2023-05-02T05:31:16.587Z,6.50
2023-05-02T05:31:44.666Z,5.30
2023-05-02T05:32:15.699Z,5.80
2023-05-02T05:32:46.242Z,6.80
2023-05-02T05:33:16.730Z,6.00
2023-05-02T05:33:47.300Z,5.80
2023-05-02T05:34:17.851Z,6.40
2023-05-02T05:34:48.539Z,6.90
2023-05-02T05:35:19.511Z,5.90
2023-05-02T05:35:50.454Z,7.40
2023-05-02T05:36:23.445Z,5.70
2023-05-02T05:36:52.137Z,6.60
2023-05-02T05:37:22.999Z,7.30
2023-05-02T05:37:53.865Z,5.60
2023-05-02T05:38:24.722Z,6.00
2023-05-02T05:38:55.572Z,6.30
2023-05-02T05:39:26.653Z,7.20
2023-05-02T05:39:57.139Z,7.30
2023-05-02T05:40:28.244Z,8.20
2023-05-02T05:40:58.692Z,6.30
2023-05-02T05:41:29.845Z,8.50
2023-05-02T05:42:00.280Z,5.10
2023-05-02T05:42:31.092Z,5.60
2023-05-02T05:43:01.920Z,6.10
2023-05-02T05:43:32.784Z,6.80
2023-05-02T05:44:03.628Z,7.20
2023-05-02T05:44:34.433Z,7.00
2023-05-02T05:45:05.243Z,7.20
2023-05-02T05:45:36.403Z,8.20
2023-05-02T05:46:06.861Z,6.20
2023-05-02T05:46:37.588Z,6.50
2023-05-02T05:47:08.174Z,9.10
2023-05-02T05:47:38.998Z,8.70
2023-05-02T05:48:09.445Z,9.70
2023-05-02T05:48:40.067Z,6.50
2023-05-02T05:49:10.483Z,7.20
2023-05-02T05:49:41.386Z,6.60
2023-05-02T05:50:12.235Z,7.40
2023-05-02T05:50:43.116Z,6.90
2023-05-02T05:51:13.945Z,7.20
2023-05-02T05:51:44.790Z,5.70
2023-05-02T05:52:15.656Z,6.00
2023-05-02T05:52:46.743Z,7.60
2023-05-02T05:53:17.182Z,6.90
2023-05-02T05:53:48.343Z,5.20
2023-05-02T05:54:18.867Z,7.30
2023-05-02T05:54:49.478Z,5.70
2023-05-02T05:55:19.936Z,6.10
2023-05-02T05:55:51.080Z,6.40
2023-05-02T05:56:21.515Z,6.30
2023-05-02T05:56:52.339Z,5.30
2023-05-02T05:57:23.168Z,6.80
2023-05-02T05:57:54.051Z,6.10
2023-05-02T05:58:24.873Z,5.70
2023-05-02T05:58:55.692Z,6.50
2023-05-02T05:59:26.510Z,6.80
2023-05-02T05:59:57.783Z,6.20
2023-05-02T06:00:28.310Z,5.90
2023-05-02T06:00:59.262Z,7.40
2023-05-02T06:01:30.206Z,7.60
2023-05-02T06:02:01.133Z,7.10
2023-05-02T06:02:32.156Z,6.00
2023-05-02T06:03:02.672Z,6.20
2023-05-02T06:03:33.769Z,6.90
2023-05-02T06:04:04.256Z,6.60
2023-05-02T06:04:35.209Z,6.30
2023-05-02T06:05:06.138Z,6.10
2023-05-02T06:05:37.354Z,7.10
2023-05-02T06:06:07.835Z,7.20
2023-05-02T06:06:38.302Z,6.00
2023-05-02T06:07:09.184Z,7.70
2023-05-02T06:07:40.085Z,6.50
2023-05-02T06:08:10.982Z,6.10
2023-05-02T06:08:41.922Z,7.70
2023-05-02T06:09:12.763Z,7.30
2023-05-02T06:09:43.579Z,5.20
2023-05-02T06:10:14.455Z,7.40
2023-05-02T06:10:45.299Z,6.00
2023-05-02T06:11:16.138Z,5.20
2023-05-02T06:11:46.989Z,7.60
2023-05-02T06:12:17.876Z,7.40
2023-05-02T06:12:49.341Z,6.60
2023-05-02T06:13:19.469Z,5.60
2023-05-02T06:13:50.591Z,10.50
2023-05-02T06:14:21.065Z,6.70
2023-05-02T06:14:52.211Z,5.30
2023-05-02T06:15:22.533Z,8.30
2023-05-02T06:15:53.394Z,6.20
2023-05-02T06:16:24.292Z,6.00
2023-05-02T06:16:55.153Z,6.30
2023-05-02T06:17:26.022Z,5.60
2023-05-02T06:17:56.916Z,10.20
2023-05-02T06:18:27.890Z,5.70
2023-05-02T06:18:59.031Z,8.40
2023-05-02T06:19:29.390Z,5.60
2023-05-02T06:20:00.735Z,6.40
2023-05-02T06:20:31.012Z,6.20
2023-05-02T06:21:02.330Z,5.60
2023-05-02T06:21:32.782Z,7.60
2023-05-02T06:22:03.652Z,6.40
2023-05-02T06:22:34.509Z,6.20
2023-05-02T06:23:05.338Z,6.40
2023-05-02T06:23:36.814Z,7.10
2023-05-02T06:24:06.698Z,8.20
2023-05-02T06:24:37.544Z,7.50
2023-05-02T06:25:08.455Z,7.00
2023-05-02T06:25:39.364Z,7.40
2023-05-02T06:26:10.276Z,6.80
2023-05-02T06:26:41.246Z,7.00
2023-05-02T06:27:12.233Z,7.40
2023-05-02T06:27:43.052Z,7.40
2023-05-02T06:28:13.889Z,7.20
2023-05-02T06:28:44.736Z,6.70
2023-05-02T06:29:15.575Z,5.80
2023-05-02T06:29:46.391Z,7.10
2023-05-02T06:30:17.256Z,5.60
2023-05-02T06:30:48.237Z,6.40
2023-05-02T06:31:19.155Z,6.90
2023-05-02T06:31:50.194Z,6.90
2023-05-02T06:32:20.700Z,6.30
2023-05-02T06:32:51.634Z,6.00
2023-05-02T06:33:22.511Z,7.70
2023-05-02T06:33:53.360Z,6.70
2023-05-02T06:34:24.187Z,6.40
2023-05-02T06:34:55.049Z,6.70
2023-05-02T06:35:25.861Z,6.40
2023-05-02T06:35:56.724Z,8.00
2023-05-02T06:36:27.352Z,7.60
2023-05-02T06:36:58.549Z,6.60
2023-05-02T06:37:29.003Z,6.20
2023-05-02T06:38:00.093Z,8.90
2023-05-02T06:38:30.554Z,6.90
2023-05-02T06:39:01.702Z,6.30
2023-05-02T06:39:32.177Z,6.40
2023-05-02T06:40:03.898Z,6.40
2023-05-02T06:40:33.987Z,6.50
2023-05-02T06:41:04.802Z,6.90
2023-05-02T06:41:35.654Z,7.00
2023-05-02T06:42:06.522Z,7.10
2023-05-02T06:42:37.357Z,7.80
2023-05-02T06:43:08.212Z,7.20
2023-05-02T06:43:39.174Z,6.10
2023-05-02T06:44:10.084Z,6.20
2023-05-02T06:44:40.964Z,7.50
2023-05-02T06:45:12.337Z,7.50
2023-05-02T06:45:42.725Z,6.80
2023-05-02T06:46:13.785Z,7.50
2023-05-02T06:46:44.305Z,10.50
2023-05-02T06:47:15.582Z,6.70
2023-05-02T06:47:48.455Z,7.80
2023-05-02T06:48:16.846Z,6.60
2023-05-02T06:48:47.748Z,8.90
2023-05-02T06:49:18.564Z,7.30
2023-05-02T06:49:49.440Z,6.60
2023-05-02T06:50:20.318Z,8.70
2023-05-02T06:50:51.260Z,7.20
2023-05-02T06:51:22.221Z,6.80
2023-05-02T06:51:53.320Z,8.40
2023-05-02T06:52:23.777Z,6.60
2023-05-02T06:52:54.600Z,7.30
2023-05-02T06:53:25.424Z,8.90
2023-05-02T06:53:56.248Z,6.60
2023-05-02T06:54:27.080Z,7.50
2023-05-02T06:54:57.904Z,7.60
2023-05-02T06:55:28.729Z,6.80